sensor_id;sensor_type;location;lat;lon;timestamp;pressure;altitude;pressure_sealevel;temperature;humidity
13934;BME280;7039;52.168;9.866;2023-01-28T00:01:26;101801.91;;;3.33;72.25
13934;BME280;7039;52.168;9.866;2023-01-28T00:03:52;101795.84;;;3.08;72.30
13934;BME280;7039;52.168;9.866;2023-01-28T00:06:20;101798.44;;;3.14;71.94
13934;BME280;7039;52.168;9.866;2023-01-28T00:08:47;101803.56;;;3.13;72.26
13934;BME280;7039;52.168;9.866;2023-01-28T00:11:14;101800.16;;;3.19;72.81
13934;BME280;7039;52.168;9.866;2023-01-28T00:13:40;101796.69;;;3.10;72.88
13934;BME280;7039;52.168;9.866;2023-01-28T00:16:07;101795.00;;;3.20;73.42
13934;BME280;7039;52.168;9.866;2023-01-28T00:18:35;101778.53;;;2.67;74.16
13934;BME280;7039;52.168;9.866;2023-01-28T00:21:03;101794.03;;;2.74;75.66
13934;BME280;7039;52.168;9.866;2023-01-28T00:23:33;101792.41;;;3.09;74.73
13934;BME280;7039;52.168;9.866;2023-01-28T00:26:01;101790.72;;;3.16;74.63
13934;BME280;7039;52.168;9.866;2023-01-28T00:28:29;101787.25;;;3.00;74.73
13934;BME280;7039;52.168;9.866;2023-01-28T00:30:55;101787.16;;;2.71;75.63
13934;BME280;7039;52.168;9.866;2023-01-28T00:33:22;101788.00;;;2.68;75.13
13934;BME280;7039;52.168;9.866;2023-01-28T00:35:56;101796.63;;;2.86;75.70
13934;BME280;7039;52.168;9.866;2023-01-28T00:38:22;101794.06;;;2.87;75.35
13934;BME280;7039;52.168;9.866;2023-01-28T00:40:50;101794.84;;;2.62;76.23
13934;BME280;7039;52.168;9.866;2023-01-28T00:43:17;101792.97;;;2.28;77.08
13934;BME280;7039;52.168;9.866;2023-01-28T00:45:43;101800.88;;;2.70;75.84
13934;BME280;7039;52.168;9.866;2023-01-28T00:48:10;101793.94;;;2.54;75.41
13934;BME280;7039;52.168;9.866;2023-01-28T00:50:36;101794.03;;;2.74;75.28
13934;BME280;7039;52.168;9.866;2023-01-28T00:53:03;101801.75;;;2.74;75.34
13934;BME280;7039;52.168;9.866;2023-01-28T00:55:30;101789.59;;;2.45;74.93
13934;BME280;7039;52.168;9.866;2023-01-28T00:57:57;101799.06;;;2.47;75.53
13934;BME280;7039;52.168;9.866;2023-01-28T01:00:24;101791.38;;;2.55;75.39
13934;BME280;7039;52.168;9.866;2023-01-28T01:02:51;101790.47;;;2.47;76.27
13934;BME280;7039;52.168;9.866;2023-01-28T01:05:18;101798.22;;;2.48;76.52
13934;BME280;7039;52.168;9.866;2023-01-28T01:07:44;101795.50;;;2.22;76.35
13934;BME280;7039;52.168;9.866;2023-01-28T01:10:13;101805.09;;;2.53;76.82
13934;BME280;7039;52.168;9.866;2023-01-28T01:12:40;101797.22;;;2.22;77.81
13934;BME280;7039;52.168;9.866;2023-01-28T01:15:09;101793.78;;;2.18;77.87
13934;BME280;7039;52.168;9.866;2023-01-28T01:17:35;101797.34;;;2.43;77.99
13934;BME280;7039;52.168;9.866;2023-01-28T01:20:03;101801.66;;;2.52;77.65
13934;BME280;7039;52.168;9.866;2023-01-28T01:22:32;101801.75;;;2.66;76.36
13934;BME280;7039;52.168;9.866;2023-01-28T01:24:58;101802.63;;;2.76;77.19
13934;BME280;7039;52.168;9.866;2023-01-28T01:27:25;101800.94;;;2.82;76.68
13934;BME280;7039;52.168;9.866;2023-01-28T01:29:51;101805.25;;;2.86;76.50
13934;BME280;7039;52.168;9.866;2023-01-28T01:32:19;101795.63;;;2.41;76.63
13934;BME280;7039;52.168;9.866;2023-01-28T01:34:46;101793.94;;;2.54;77.37
13934;BME280;7039;52.168;9.866;2023-01-28T01:37:13;101794.84;;;2.57;77.17
13934;BME280;7039;52.168;9.866;2023-01-28T01:39:40;101802.63;;;2.79;76.74
13934;BME280;7039;52.168;9.866;2023-01-28T01:42:09;101806.13;;;2.91;77.00
13934;BME280;7039;52.168;9.866;2023-01-28T01:44:55;101806.97;;;2.95;76.28
13934;BME280;7039;52.168;9.866;2023-01-28T01:47:24;101799.25;;;2.89;76.34
13934;BME280;7039;52.168;9.866;2023-01-28T01:49:53;101800.06;;;2.88;76.00
13934;BME280;7039;52.168;9.866;2023-01-28T01:52:23;101801.78;;;2.83;76.33
13934;BME280;7039;52.168;9.866;2023-01-28T01:54:53;101800.03;;;2.74;77.09
13934;BME280;7039;52.168;9.866;2023-01-28T01:57:25;101802.59;;;2.74;76.28
13934;BME280;7039;52.168;9.866;2023-01-28T01:59:54;101803.50;;;2.82;76.66
13934;BME280;7039;52.168;9.866;2023-01-28T02:02:23;101800.06;;;2.79;76.75
13934;BME280;7039;52.168;9.866;2023-01-28T02:04:50;101805.25;;;2.92;76.11
13934;BME280;7039;52.168;9.866;2023-01-28T02:07:17;101807.84;;;3.02;76.07
13934;BME280;7039;52.168;9.866;2023-01-28T02:09:44;101807.00;;;3.01;75.97
13934;BME280;7039;52.168;9.866;2023-01-28T02:12:12;101814.72;;;3.01;75.44
13934;BME280;7039;52.168;9.866;2023-01-28T02:14:43;101807.81;;;2.82;75.34
13934;BME280;7039;52.168;9.866;2023-01-28T02:17:11;101810.31;;;2.68;75.93
13934;BME280;7039;52.168;9.866;2023-01-28T02:19:43;101810.34;;;2.74;75.53
13934;BME280;7039;52.168;9.866;2023-01-28T02:22:56;101818.09;;;2.76;76.26
13934;BME280;7039;52.168;9.866;2023-01-28T02:25:40;101824.97;;;2.83;75.67
13934;BME280;7039;52.168;9.866;2023-01-28T02:28:20;101810.34;;;2.71;75.01
13934;BME280;7039;52.168;9.866;2023-01-28T02:30:51;101821.53;;;2.81;75.73
13934;BME280;7039;52.168;9.866;2023-01-28T02:33:24;101811.91;;;2.40;76.51
13934;BME280;7039;52.168;9.866;2023-01-28T02:35:53;101817.94;;;2.46;75.41
13934;BME280;7039;52.168;9.866;2023-01-28T02:38:24;101818.00;;;2.60;75.21
13934;BME280;7039;52.168;9.866;2023-01-28T02:40:55;101821.44;;;2.61;74.74
13934;BME280;7039;52.168;9.866;2023-01-28T02:43:32;101812.88;;;2.62;74.67
13934;BME280;7039;52.168;9.866;2023-01-28T02:46:04;101817.22;;;2.70;75.02
13934;BME280;7039;52.168;9.866;2023-01-28T02:48:53;101814.63;;;2.69;74.80
13934;BME280;7039;52.168;9.866;2023-01-28T02:51:26;101814.69;;;2.87;74.77
13934;BME280;7039;52.168;9.866;2023-01-28T02:54:02;101809.44;;;2.67;74.98
13934;BME280;7039;52.168;9.866;2023-01-28T02:56:37;101807.75;;;2.69;74.87
13934;BME280;7039;52.168;9.866;2023-01-28T02:59:12;101796.44;;;2.38;75.86
13934;BME280;7039;52.168;9.866;2023-01-28T03:02:02;101803.31;;;2.35;75.43
13934;BME280;7039;52.168;9.866;2023-01-28T03:04:37;101803.25;;;2.27;75.65
13934;BME280;7039;52.168;9.866;2023-01-28T03:07:06;101805.91;;;2.39;74.96
13934;BME280;7039;52.168;9.866;2023-01-28T03:09:35;101803.34;;;2.47;75.73
13934;BME280;7039;52.168;9.866;2023-01-28T03:12:04;101803.31;;;2.35;74.91
13934;BME280;7039;52.168;9.866;2023-01-28T03:14:54;101805.91;;;2.41;75.39
13934;BME280;7039;52.168;9.866;2023-01-28T03:17:43;101809.25;;;2.29;75.85
13934;BME280;7039;52.168;9.866;2023-01-28T03:20:33;101801.53;;;2.29;74.71
13934;BME280;7039;52.168;9.866;2023-01-28T03:23:22;101804.16;;;2.38;74.54
13934;BME280;7039;52.168;9.866;2023-01-28T03:26:12;101798.19;;;2.39;75.29
13934;BME280;7039;52.168;9.866;2023-01-28T03:29:02;101796.38;;;2.26;75.66
13934;BME280;7039;52.168;9.866;2023-01-28T03:31:50;101798.16;;;2.38;75.18
13934;BME280;7039;52.168;9.866;2023-01-28T03:34:34;101791.34;;;2.49;75.09
13934;BME280;7039;52.168;9.866;2023-01-28T03:37:18;101799.06;;;2.52;75.14
13934;BME280;7039;52.168;9.866;2023-01-28T03:39:45;101792.13;;;2.31;74.68
13934;BME280;7039;52.168;9.866;2023-01-28T03:42:13;101798.09;;;2.28;75.40
13934;BME280;7039;52.168;9.866;2023-01-28T03:44:39;101789.38;;;2.06;74.78
13934;BME280;7039;52.168;9.866;2023-01-28T03:47:17;101794.53;;;2.06;74.51
13934;BME280;7039;52.168;9.866;2023-01-28T03:49:45;101787.53;;;1.82;76.00
13934;BME280;7039;52.168;9.866;2023-01-28T03:52:14;101794.44;;;1.90;76.47
13934;BME280;7039;52.168;9.866;2023-01-28T03:54:40;101793.75;;;2.14;74.97
13934;BME280;7039;52.168;9.866;2023-01-28T03:57:07;101804.16;;;2.32;75.02
13934;BME280;7039;52.168;9.866;2023-01-28T03:59:34;101796.41;;;2.34;75.15
13934;BME280;7039;52.168;9.866;2023-01-28T04:02:00;101794.78;;;2.49;74.86
13934;BME280;7039;52.168;9.866;2023-01-28T04:04:29;101809.47;;;2.72;74.75
13934;BME280;7039;52.168;9.866;2023-01-28T04:06:57;101798.19;;;2.44;74.42
13934;BME280;7039;52.168;9.866;2023-01-28T04:09:24;101799.00;;;2.35;73.89
13934;BME280;7039;52.168;9.866;2023-01-28T04:11:50;101802.31;;;2.16;75.40
13934;BME280;7039;52.168;9.866;2023-01-28T04:14:17;101793.69;;;2.06;74.65
13934;BME280;7039;52.168;9.866;2023-01-28T04:16:44;101814.44;;;2.35;75.10
13934;BME280;7039;52.168;9.866;2023-01-28T04:19:10;101822.25;;;2.49;75.05
13934;BME280;7039;52.168;9.866;2023-01-28T04:21:39;101815.41;;;2.54;74.97
13934;BME280;7039;52.168;9.866;2023-01-28T04:24:06;101808.28;;;2.07;75.32
13934;BME280;7039;52.168;9.866;2023-01-28T04:26:33;101816.94;;;2.21;74.26
13934;BME280;7039;52.168;9.866;2023-01-28T04:28:59;101823.06;;;2.40;75.05
13934;BME280;7039;52.168;9.866;2023-01-28T04:31:25;101836.81;;;2.44;75.91
13934;BME280;7039;52.168;9.866;2023-01-28T04:33:52;101829.09;;;2.41;74.84
13934;BME280;7039;52.168;9.866;2023-01-28T04:36:18;101823.78;;;2.19;74.22
13934;BME280;7039;52.168;9.866;2023-01-28T04:38:46;101825.47;;;2.09;74.32
13934;BME280;7039;52.168;9.866;2023-01-28T04:41:13;101828.94;;;2.16;74.51
13934;BME280;7039;52.168;9.866;2023-01-28T04:43:39;101838.31;;;2.08;75.72
13934;BME280;7039;52.168;9.866;2023-01-28T04:46:06;101842.66;;;2.17;75.82
13934;BME280;7039;52.168;9.866;2023-01-28T04:48:32;101842.66;;;2.14;75.76
13934;BME280;7039;52.168;9.866;2023-01-28T04:51:00;101847.00;;;2.25;76.80
13934;BME280;7039;52.168;9.866;2023-01-28T04:53:27;101847.03;;;2.30;75.94
13934;BME280;7039;52.168;9.866;2023-01-28T04:55:56;101845.34;;;2.35;74.44
13934;BME280;7039;52.168;9.866;2023-01-28T04:58:22;101842.81;;;2.43;74.85
13934;BME280;7039;52.168;9.866;2023-01-28T05:00:53;101847.06;;;2.33;74.26
13934;BME280;7039;52.168;9.866;2023-01-28T05:03:20;101847.91;;;2.35;73.76
13934;BME280;7039;52.168;9.866;2023-01-28T05:05:46;101844.47;;;2.33;72.70
13934;BME280;7039;52.168;9.866;2023-01-28T05:08:13;101836.78;;;2.38;71.71
13934;BME280;7039;52.168;9.866;2023-01-28T05:10:39;101843.63;;;2.34;70.71
13934;BME280;7039;52.168;9.866;2023-01-28T05:13:07;101838.34;;;2.14;70.52
13934;BME280;7039;52.168;9.866;2023-01-28T05:15:34;101839.97;;;1.98;70.37
13934;BME280;7039;52.168;9.866;2023-01-28T05:18:01;101844.41;;;2.22;71.82
13934;BME280;7039;52.168;9.866;2023-01-28T05:20:27;101849.50;;;2.15;71.28
13934;BME280;7039;52.168;9.866;2023-01-28T05:22:53;101851.22;;;2.14;70.98
13934;BME280;7039;52.168;9.866;2023-01-28T05:25:20;101853.00;;;2.24;70.52
13934;BME280;7039;52.168;9.866;2023-01-28T05:27:48;101843.56;;;2.26;70.05
13934;BME280;7039;52.168;9.866;2023-01-28T05:30:17;101841.00;;;2.26;70.92
13934;BME280;7039;52.168;9.866;2023-01-28T05:32:43;101842.63;;;2.09;71.97
13934;BME280;7039;52.168;9.866;2023-01-28T05:35:09;101844.31;;;2.10;71.47
13934;BME280;7039;52.168;9.866;2023-01-28T05:37:36;101845.97;;;2.00;70.15
13934;BME280;7039;52.168;9.866;2023-01-28T05:40:03;101843.38;;;1.99;71.89
13934;BME280;7039;52.168;9.866;2023-01-28T05:42:30;101854.59;;;2.08;69.53
13934;BME280;7039;52.168;9.866;2023-01-28T05:44:56;101842.69;;;2.24;70.69
13934;BME280;7039;52.168;9.866;2023-01-28T05:47:26;101850.56;;;2.46;69.98
13934;BME280;7039;52.168;9.866;2023-01-28T05:49:52;101844.47;;;2.33;70.61
13934;BME280;7039;52.168;9.866;2023-01-28T05:52:19;101835.75;;;2.09;70.69
13934;BME280;7039;52.168;9.866;2023-01-28T05:54:45;101841.94;;;2.39;71.22
13934;BME280;7039;52.168;9.866;2023-01-28T05:57:12;101842.00;;;2.50;71.32
13934;BME280;7039;52.168;9.866;2023-01-28T05:59:38;101839.38;;;2.42;71.92
13934;BME280;7039;52.168;9.866;2023-01-28T06:02:05;101843.72;;;2.51;71.88
13934;BME280;7039;52.168;9.866;2023-01-28T06:04:33;101847.22;;;2.67;71.16
13934;BME280;7039;52.168;9.866;2023-01-28T06:06:59;101841.97;;;2.41;68.96
13934;BME280;7039;52.168;9.866;2023-01-28T06:09:26;101837.66;;;2.43;69.26
13934;BME280;7039;52.168;9.866;2023-01-28T06:11:52;101830.69;;;2.23;68.15
13934;BME280;7039;52.168;9.866;2023-01-28T06:14:19;101838.53;;;2.42;68.74
13934;BME280;7039;52.168;9.866;2023-01-28T06:16:45;101835.97;;;2.46;69.87
13934;BME280;7039;52.168;9.866;2023-01-28T06:19:12;101832.63;;;2.64;70.04
13934;BME280;7039;52.168;9.866;2023-01-28T06:21:39;101846.34;;;2.57;70.48
13934;BME280;7039;52.168;9.866;2023-01-28T06:24:07;101854.94;;;2.62;70.50
13934;BME280;7039;52.168;9.866;2023-01-28T06:26:34;101854.69;;;2.16;70.96
13934;BME280;7039;52.168;9.866;2023-01-28T06:29:00;101854.34;;;1.76;70.10
13934;BME280;7039;52.168;9.866;2023-01-28T06:31:27;101852.81;;;1.98;71.70
13934;BME280;7039;52.168;9.866;2023-01-28T06:33:53;101844.84;;;1.67;69.09
13934;BME280;7039;52.168;9.866;2023-01-28T06:36:20;101857.22;;;2.13;69.41
13934;BME280;7039;52.168;9.866;2023-01-28T06:38:48;101861.56;;;2.19;68.24
13934;BME280;7039;52.168;9.866;2023-01-28T06:41:14;101849.31;;;1.90;67.19
13934;BME280;7039;52.168;9.866;2023-01-28T06:43:40;101835.28;;;1.53;67.77
13934;BME280;7039;52.168;9.866;2023-01-28T06:46:07;101842.13;;;1.52;68.48
13934;BME280;7039;52.168;9.866;2023-01-28T06:48:33;101853.59;;;1.88;67.63
13934;BME280;7039;52.168;9.866;2023-01-28T06:51:00;101858.91;;;2.08;67.96
13934;BME280;7039;52.168;9.866;2023-01-28T06:53:26;101856.38;;;2.14;66.98
13934;BME280;7039;52.168;9.866;2023-01-28T06:55:55;101845.91;;;1.90;65.87
13934;BME280;7039;52.168;9.866;2023-01-28T06:58:21;101853.56;;;1.85;68.68
13934;BME280;7039;52.168;9.866;2023-01-28T07:00:48;101849.16;;;1.70;68.29
13934;BME280;7039;52.168;9.866;2023-01-28T07:03:14;101848.28;;;1.66;67.76
13934;BME280;7039;52.168;9.866;2023-01-28T07:05:41;101851.03;;;1.86;67.87
13934;BME280;7039;52.168;9.866;2023-01-28T07:08:07;101848.59;;;2.08;68.49
13934;BME280;7039;52.168;9.866;2023-01-28T07:10:34;101853.84;;;2.23;68.72
13934;BME280;7039;52.168;9.866;2023-01-28T07:13:02;101859.06;;;2.33;69.76
13934;BME280;7039;52.168;9.866;2023-01-28T07:15:28;101860.78;;;2.32;69.50
13934;BME280;7039;52.168;9.866;2023-01-28T07:17:55;101855.56;;;2.21;67.84
13934;BME280;7039;52.168;9.866;2023-01-28T07:20:21;101853.00;;;2.24;67.67
13934;BME280;7039;52.168;9.866;2023-01-28T07:22:48;101852.91;;;2.11;67.78
13934;BME280;7039;52.168;9.866;2023-01-28T07:25:15;101858.06;;;2.09;67.89
13934;BME280;7039;52.168;9.866;2023-01-28T07:27:45;101855.59;;;2.23;68.18
13934;BME280;7039;52.168;9.866;2023-01-28T07:30:14;101852.19;;;2.32;68.92
13934;BME280;7039;52.168;9.866;2023-01-28T07:32:40;101849.63;;;2.33;68.84
13934;BME280;7039;52.168;9.866;2023-01-28T07:35:07;101853.06;;;2.38;69.58
13934;BME280;7039;52.168;9.866;2023-01-28T07:37:34;101860.03;;;2.53;69.84
13934;BME280;7039;52.168;9.866;2023-01-28T07:40:00;101860.97;;;2.61;70.17
13934;BME280;7039;52.168;9.866;2023-01-28T07:42:27;101856.47;;;2.25;70.30
13934;BME280;7039;52.168;9.866;2023-01-28T07:44:53;101865.16;;;2.47;70.26
13934;BME280;7039;52.168;9.866;2023-01-28T07:47:21;101866.78;;;2.31;69.36
13934;BME280;7039;52.168;9.866;2023-01-28T07:49:47;101867.34;;;1.92;67.55
13934;BME280;7039;52.168;9.866;2023-01-28T07:52:14;101868.09;;;1.81;67.16
13934;BME280;7039;52.168;9.866;2023-01-28T07:54:40;101872.75;;;2.27;68.26
13934;BME280;7039;52.168;9.866;2023-01-28T07:57:07;101861.69;;;2.45;67.19
13934;BME280;7039;52.168;9.866;2023-01-28T07:59:34;101870.38;;;2.58;66.65
13934;BME280;7039;52.168;9.866;2023-01-28T08:02:01;101874.69;;;2.63;65.32
13934;BME280;7039;52.168;9.866;2023-01-28T08:04:29;101864.25;;;2.39;65.56
13934;BME280;7039;52.168;9.866;2023-01-28T08:06:56;101865.94;;;2.34;66.85
13934;BME280;7039;52.168;9.866;2023-01-28T08:09:22;101873.78;;;2.55;68.55
13934;BME280;7039;52.168;9.866;2023-01-28T08:11:49;101876.38;;;2.55;69.26
13934;BME280;7039;52.168;9.866;2023-01-28T08:14:15;101878.13;;;2.64;68.10
13934;BME280;7039;52.168;9.866;2023-01-28T08:16:42;101889.31;;;2.67;67.51
13934;BME280;7039;52.168;9.866;2023-01-28T08:19:08;101889.38;;;2.81;66.69
13934;BME280;7039;52.168;9.866;2023-01-28T08:21:36;101894.56;;;2.90;65.06
13934;BME280;7039;52.168;9.866;2023-01-28T08:24:03;101887.69;;;2.88;64.10
13934;BME280;7039;52.168;9.866;2023-01-28T08:26:30;101894.50;;;2.77;65.06
13934;BME280;7039;52.168;9.866;2023-01-28T08:28:56;101900.47;;;2.65;66.01
13934;BME280;7039;52.168;9.866;2023-01-28T08:31:22;101900.47;;;2.65;66.24
13934;BME280;7039;52.168;9.866;2023-01-28T08:33:49;101905.66;;;2.71;65.84
13934;BME280;7039;52.168;9.866;2023-01-28T08:36:15;101913.16;;;2.40;65.72
13934;BME280;7039;52.168;9.866;2023-01-28T08:38:43;101908.88;;;2.39;66.17
13934;BME280;7039;52.168;9.866;2023-01-28T08:41:10;101911.41;;;2.33;67.26
13934;BME280;7039;52.168;9.866;2023-01-28T08:43:36;101909.63;;;2.23;67.82
13934;BME280;7039;52.168;9.866;2023-01-28T08:46:04;101908.56;;;1.96;67.88
13934;BME280;7039;52.168;9.866;2023-01-28T08:48:31;101916.50;;;2.24;68.65
13934;BME280;7039;52.168;9.866;2023-01-28T08:50:58;101916.72;;;2.56;67.09
13934;BME280;7039;52.168;9.866;2023-01-28T08:53:24;101928.78;;;2.62;66.51
13934;BME280;7039;52.168;9.866;2023-01-28T08:55:52;101928.78;;;2.68;65.50
13934;BME280;7039;52.168;9.866;2023-01-28T08:58:19;101930.38;;;2.47;65.14
13934;BME280;7039;52.168;9.866;2023-01-28T09:00:46;101934.88;;;2.76;65.77
13934;BME280;7039;52.168;9.866;2023-01-28T09:03:14;101940.84;;;2.69;65.67
13934;BME280;7039;52.168;9.866;2023-01-28T09:05:40;101934.09;;;2.91;63.59
13934;BME280;7039;52.168;9.866;2023-01-28T09:08:09;101944.25;;;2.68;63.79
13934;BME280;7039;52.168;9.866;2023-01-28T09:10:36;101954.53;;;2.62;65.23
13934;BME280;7039;52.168;9.866;2023-01-28T09:13:08;101952.78;;;2.61;62.90
13934;BME280;7039;52.168;9.866;2023-01-28T09:15:35;101959.00;;;2.90;63.59
13934;BME280;7039;52.168;9.866;2023-01-28T09:18:02;101971.22;;;3.30;64.06
13934;BME280;7039;52.168;9.866;2023-01-28T09:20:28;101970.34;;;3.31;62.49
13934;BME280;7039;52.168;9.866;2023-01-28T09:22:54;101954.69;;;2.86;62.54
13934;BME280;7039;52.168;9.866;2023-01-28T09:25:21;101963.41;;;3.11;63.11
13934;BME280;7039;52.168;9.866;2023-01-28T09:27:47;101947.81;;;2.85;63.31
13934;BME280;7039;52.168;9.866;2023-01-28T09:30:27;101960.72;;;2.91;63.29
13934;BME280;7039;52.168;9.866;2023-01-28T09:32:57;101964.22;;;3.06;61.46
13934;BME280;7039;52.168;9.866;2023-01-28T09:35:38;101976.28;;;3.08;62.51
13934;BME280;7039;52.168;9.866;2023-01-28T09:38:31;101976.59;;;2.29;63.89
13934;BME280;7039;52.168;9.866;2023-01-28T10:08:04;101994.16;;;2.84;64.91
13934;BME280;7039;52.168;9.866;2023-01-28T10:11:06;101987.78;;;2.31;63.62
13934;BME280;7039;52.168;9.866;2023-01-28T10:14:15;101986.31;;;2.65;64.69
13934;BME280;7039;52.168;9.866;2023-01-28T10:24:56;101975.84;;;2.39;63.92
13934;BME280;7039;52.168;9.866;2023-01-28T10:28:28;101979.34;;;2.52;64.13
13934;BME280;7039;52.168;9.866;2023-01-28T10:34:08;101982.16;;;2.87;63.75
13934;BME280;7039;52.168;9.866;2023-01-28T10:40:24;101970.00;;;2.68;64.29
13934;BME280;7039;52.168;9.866;2023-01-28T12:53:35;101814.78;;;3.33;61.88
13934;BME280;7039;52.168;9.866;2023-01-28T12:56:22;101818.25;;;3.74;62.53
13934;BME280;7039;52.168;9.866;2023-01-28T12:59:12;101816.53;;;3.58;61.17
13934;BME280;7039;52.168;9.866;2023-01-28T13:02:05;101815.69;;;3.71;59.69
13934;BME280;7039;52.168;9.866;2023-01-28T13:04:49;101801.06;;;3.56;61.09
13934;BME280;7039;52.168;9.866;2023-01-28T13:07:58;101801.94;;;3.80;59.72
13934;BME280;7039;52.168;9.866;2023-01-28T13:10:44;101807.94;;;3.98;58.44
13934;BME280;7039;52.168;9.866;2023-01-28T13:13:33;101804.50;;;3.80;59.15
13934;BME280;7039;52.168;9.866;2023-01-28T13:16:53;101811.34;;;4.11;59.91
13934;BME280;7039;52.168;9.866;2023-01-28T13:19:38;101828.59;;;3.82;58.54
13934;BME280;7039;52.168;9.866;2023-01-28T13:22:43;101846.53;;;4.58;58.66
13934;BME280;7039;52.168;9.866;2023-01-28T13:25:20;101849.88;;;4.85;57.94
13934;BME280;7039;52.168;9.866;2023-01-28T13:27:57;101832.69;;;4.76;56.75
13934;BME280;7039;52.168;9.866;2023-01-28T13:30:28;101807.06;;;4.01;57.63
13934;BME280;7039;52.168;9.866;2023-01-28T13:33:30;101807.06;;;4.01;58.51
13934;BME280;7039;52.168;9.866;2023-01-28T13:36:31;101813.09;;;3.94;58.21
13934;BME280;7039;52.168;9.866;2023-01-28T13:39:28;101825.97;;;3.97;58.21
13934;BME280;7039;52.168;9.866;2023-01-28T13:42:31;101837.16;;;4.14;57.37
13934;BME280;7039;52.168;9.866;2023-01-28T13:45:54;101841.47;;;4.02;57.99
13934;BME280;7039;52.168;9.866;2023-01-28T13:48:41;101862.09;;;4.20;58.51
13934;BME280;7039;52.168;9.866;2023-01-28T13:51:17;101867.25;;;4.31;58.37
13934;BME280;7039;52.168;9.866;2023-01-28T13:53:47;101841.41;;;3.09;60.57
13934;BME280;7039;52.168;9.866;2023-01-28T13:56:21;101854.34;;;3.37;61.29
13934;BME280;7039;52.168;9.866;2023-01-28T13:59:16;101856.97;;;3.52;60.95
13934;BME280;7039;52.168;9.866;2023-01-28T14:02:35;101873.28;;;4.39;59.22
13934;BME280;7039;52.168;9.866;2023-01-28T14:18:39;101874.09;;;4.64;59.20
13934;BME280;7039;52.168;9.866;2023-01-28T14:24:16;101832.88;;;4.12;59.81
13934;BME280;7039;52.168;9.866;2023-01-28T14:30:41;101819.97;;;3.72;61.74
13934;BME280;7039;52.168;9.866;2023-01-28T14:33:32;101816.53;;;3.53;61.74
13934;BME280;7039;52.168;9.866;2023-01-28T14:36:13;101811.38;;;3.34;62.74
13934;BME280;7039;52.168;9.866;2023-01-28T14:38:49;101801.91;;;3.41;61.75
13934;BME280;7039;52.168;9.866;2023-01-28T14:41:47;101789.00;;;3.21;62.26
13934;BME280;7039;52.168;9.866;2023-01-28T14:44:44;101795.00;;;3.26;62.95
13934;BME280;7039;52.168;9.866;2023-01-28T14:47:46;101794.16;;;3.30;63.74
13934;BME280;7039;52.168;9.866;2023-01-28T14:50:29;101808.78;;;3.36;63.82
13934;BME280;7039;52.168;9.866;2023-01-28T14:53:25;101794.16;;;3.21;63.23
13934;BME280;7039;52.168;9.866;2023-01-28T14:56:00;101812.19;;;3.29;63.50
13934;BME280;7039;52.168;9.866;2023-01-28T14:58:58;101819.06;;;3.07;64.04
13934;BME280;7039;52.168;9.866;2023-01-28T15:20:48;101838.38;;;2.19;65.71
13934;BME280;7039;52.168;9.866;2023-01-28T15:23:24;101821.91;;;1.92;66.73
13934;BME280;7039;52.168;9.866;2023-01-28T15:25:54;101816.72;;;1.91;67.74
13934;BME280;7039;52.168;9.866;2023-01-28T15:28:48;101798.75;;;1.92;68.77
13934;BME280;7039;52.168;9.866;2023-01-28T15:31:19;101810.66;;;1.81;69.06
13934;BME280;7039;52.168;9.866;2023-01-28T15:33:55;101814.13;;;1.86;68.93
13934;BME280;7039;52.168;9.866;2023-01-28T15:36:22;101821.91;;;1.94;68.98
13934;BME280;7039;52.168;9.866;2023-01-28T15:38:50;101824.47;;;1.89;68.77
13934;BME280;7039;52.168;9.866;2023-01-28T15:41:18;101843.38;;;1.99;68.35
13934;BME280;7039;52.168;9.866;2023-01-28T15:43:48;101847.69;;;1.98;68.23
13934;BME280;7039;52.168;9.866;2023-01-28T15:46:15;101843.28;;;1.85;68.70
13934;BME280;7039;52.168;9.866;2023-01-28T15:48:45;101848.44;;;1.86;69.57
13934;BME280;7039;52.168;9.866;2023-01-28T15:51:19;101849.38;;;1.93;68.92
13934;BME280;7039;52.168;9.866;2023-01-28T15:53:50;101847.50;;;1.75;69.26
13934;BME280;7039;52.168;9.866;2023-01-28T15:56:24;101846.56;;;1.70;69.22
13934;BME280;7039;52.168;9.866;2023-01-28T15:58:52;101836.94;;;1.48;69.63
13934;BME280;7039;52.168;9.866;2023-01-28T16:01:20;101839.53;;;1.46;69.70
13934;BME280;7039;52.168;9.866;2023-01-28T16:04:00;101844.63;;;1.41;70.12
13934;BME280;7039;52.168;9.866;2023-01-28T16:06:30;101854.03;;;1.39;70.21
13934;BME280;7039;52.168;9.866;2023-01-28T16:09:01;101846.19;;;1.29;70.55
13934;BME280;7039;52.168;9.866;2023-01-28T16:11:30;101861.63;;;1.29;70.95
13934;BME280;7039;52.168;9.866;2023-01-28T16:13:58;101877.03;;;1.29;71.32
13934;BME280;7039;52.168;9.866;2023-01-28T16:16:28;101881.31;;;1.28;71.49
13934;BME280;7039;52.168;9.866;2023-01-28T16:18:55;101888.16;;;1.29;71.21
13934;BME280;7039;52.168;9.866;2023-01-28T16:21:24;101881.13;;;1.13;71.29
13934;BME280;7039;52.168;9.866;2023-01-28T16:23:57;101865.53;;;0.97;71.86
13934;BME280;7039;52.168;9.866;2023-01-28T16:26:27;101877.59;;;1.03;71.79
13934;BME280;7039;52.168;9.866;2023-01-28T16:28:54;101874.06;;;0.95;72.18
13934;BME280;7039;52.168;9.866;2023-01-28T16:31:20;101880.06;;;0.95;72.23
13934;BME280;7039;52.168;9.866;2023-01-28T16:33:47;101908.28;;;0.92;72.58
13934;BME280;7039;52.168;9.866;2023-01-28T16:36:15;101915.28;;;1.02;72.24
13934;BME280;7039;52.168;9.866;2023-01-28T16:38:43;101909.97;;;0.90;72.65
13934;BME280;7039;52.168;9.866;2023-01-28T16:41:14;101894.38;;;0.76;72.98
13934;BME280;7039;52.168;9.866;2023-01-28T16:43:45;101898.00;;;0.89;72.44
13934;BME280;7039;52.168;9.866;2023-01-28T16:46:12;101891.00;;;0.79;72.57
13934;BME280;7039;52.168;9.866;2023-01-28T16:48:38;101887.66;;;0.85;72.43
13934;BME280;7039;52.168;9.866;2023-01-28T16:51:05;101881.47;;;0.70;72.64
13934;BME280;7039;52.168;9.866;2023-01-28T16:53:32;101872.06;;;0.72;73.22
13934;BME280;7039;52.168;9.866;2023-01-28T16:55:59;101862.78;;;0.80;73.72
13934;BME280;7039;52.168;9.866;2023-01-28T16:58:26;101860.00;;;0.65;73.95
13934;BME280;7039;52.168;9.866;2023-01-28T17:00:54;101854.75;;;0.56;74.93
13934;BME280;7039;52.168;9.866;2023-01-28T17:03:21;101844.44;;;0.54;75.69
13934;BME280;7039;52.168;9.866;2023-01-28T17:05:48;101854.88;;;0.65;75.95
13934;BME280;7039;52.168;9.866;2023-01-28T17:08:14;101859.25;;;0.74;75.63